Time;durP1;ratioP1;P1;durP2;ratioP2;P2;SDS_P1;SDS_P2;PMS_P1;PMS_P2;Temp;Humidity;BMP_temperature;BMP_pressure;BME280_temperature;BME280_humidity;BME280_pressure;Samples;Min_cycle;Max_cycle;Signal;HPM_P1;HPM_P2
2023/08/20 00:00:49;;;;;;;3.60;0.40;;;20.40;99.90;;;;;;4196708;28;20274;-82
2023/08/20 00:02:58;;;;;;;5.63;1.65;;;20.50;99.90;;;;;;4198251;28;20167;-82
2023/08/20 00:04:59;;;;;;;4.28;1.08;;;20.50;99.90;;;;;;4196893;28;20193;-82
2023/08/20 00:07:00;;;;;;;2.67;0.45;;;20.40;99.90;;;;;;4197101;28;20177;-82
2023/08/20 00:09:00;;;;;;;3.28;0.75;;;20.40;99.90;;;;;;4180314;28;20698;-82
2023/08/20 00:11:01;;;;;;;3.47;0.50;;;20.40;99.90;;;;;;4213520;28;20186;-82
2023/08/20 00:13:04;;;;;;;2.15;0.77;;;20.50;99.90;;;;;;4196852;28;20721;-82
2023/08/20 00:15:05;;;;;;;4.20;1.05;;;20.50;99.90;;;;;;4198072;28;20167;-82
2023/08/20 00:17:06;;;;;;;4.40;1.05;;;20.70;99.90;;;;;;4179781;28;20203;-83
2023/08/20 00:19:08;;;;;;;0.73;0.30;;;20.80;99.90;;;;;;4197604;28;20178;-82
2023/08/20 00:21:08;;;;;;;1.90;0.50;;;20.80;99.90;;;;;;4197966;28;20191;-82
2023/08/20 00:23:09;;;;;;;8.43;1.85;;;20.70;99.90;;;;;;4196677;28;20555;-82
2023/08/20 00:25:11;;;;;;;3.22;0.50;;;20.70;99.90;;;;;;4198102;28;20182;-83
2023/08/20 00:27:12;;;;;;;2.60;1.17;;;20.70;99.90;;;;;;4213497;28;20162;-82
2023/08/20 00:29:13;;;;;;;1.92;0.60;;;20.80;99.90;;;;;;4180178;28;20245;-82
2023/08/20 00:31:14;;;;;;;0.45;0.10;;;20.90;99.90;;;;;;4196606;28;20194;-82
2023/08/20 00:33:15;;;;;;;0.88;0.43;;;21.00;99.90;;;;;;4196630;28;20205;-82
2023/08/20 00:35:16;;;;;;;2.40;0.77;;;21.00;99.90;;;;;;4197876;28;20160;-82
2023/08/20 00:37:17;;;;;;;3.92;0.60;;;21.10;99.90;;;;;;4196324;28;20206;-82
2023/08/20 00:39:18;;;;;;;2.53;0.68;;;21.10;99.90;;;;;;4196572;28;20542;-82
2023/08/20 00:41:19;;;;;;;4.90;0.93;;;21.10;99.90;;;;;;4197543;28;20195;-82
2023/08/20 00:43:19;;;;;;;2.47;0.60;;;21.10;99.90;;;;;;4196449;28;20163;-82
2023/08/20 00:45:21;;;;;;;2.42;0.63;;;21.30;99.90;;;;;;4196633;28;20276;-82
2023/08/20 00:47:22;;;;;;;3.35;0.75;;;21.10;99.90;;;;;;4196427;28;20182;-82
2023/08/20 00:49:23;;;;;;;2.63;0.75;;;21.00;99.90;;;;;;4197674;28;20166;-82
2023/08/20 00:51:25;;;;;;;3.17;0.75;;;20.90;99.90;;;;;;4196467;28;20190;-82
2023/08/20 00:53:26;;;;;;;0.35;0.30;;;20.80;99.90;;;;;;4179828;28;20595;-82
2023/08/20 00:55:27;;;;;;;7.03;0.95;;;20.80;99.90;;;;;;4196438;28;20232;-82
2023/08/20 00:57:28;;;;;;;2.88;1.15;;;20.80;99.90;;;;;;4198046;28;20218;-82
2023/08/20 00:59:31;;;;;;;2.92;0.95;;;20.90;99.90;;;;;;4200904;28;20166;-82
2023/08/20 01:01:32;;;;;;;5.63;0.82;;;20.90;99.90;;;;;;4199406;28;20175;-83
2023/08/20 01:03:33;;;;;;;1.10;0.50;;;20.90;99.90;;;;;;4200435;28;20581;-82
2023/08/20 01:05:48;;;;;;;3.90;0.80;;;20.90;99.90;;;;;;4199268;28;20178;-82
2023/08/20 01:08:20;;;;;;;2.10;0.60;;;20.90;99.90;;;;;;4199517;28;20178;-82
2023/08/20 01:10:48;;;;;;;3.60;0.65;;;20.90;99.90;;;;;;4194939;28;20210;-82
2023/08/20 01:12:51;;;;;;;5.60;1.08;;;20.80;99.90;;;;;;4199217;28;20179;-82
2023/08/20 01:14:52;;;;;;;0.63;0.35;;;20.60;99.90;;;;;;4199454;28;20579;-82
2023/08/20 01:16:52;;;;;;;3.22;0.50;;;20.70;99.90;;;;;;4200471;28;20246;-83
2023/08/20 01:18:54;;;;;;;0.20;0.20;;;20.70;99.90;;;;;;4199329;28;20175;-82
2023/08/20 01:21:13;;;;;;;1.25;0.43;;;20.70;99.90;;;;;;4182628;28;20192;-82
2023/08/20 01:23:38;;;;;;;1.75;0.50;;;20.80;99.90;;;;;;4199246;28;20198;-82
2023/08/20 01:26:15;;;;;;;2.50;0.80;;;20.90;99.90;;;;;;4199265;28;20185;-82
2023/08/20 01:28:28;;;;;;;3.05;0.70;;;20.90;99.90;;;;;;4149182;28;20181;-82
2023/08/20 01:30:30;;;;;;;1.98;1.10;;;20.90;99.90;;;;;;4192592;28;20766;-82
2023/08/20 01:32:32;;;;;;;2.72;0.55;;;20.90;99.90;;;;;;4199004;28;20171;-82
2023/08/20 01:34:33;;;;;;;2.15;0.80;;;20.80;99.90;;;;;;4200084;28;20246;-83
2023/08/20 01:36:34;;;;;;;2.58;0.70;;;20.80;99.90;;;;;;4199006;28;20206;-83
2023/08/20 01:38:35;;;;;;;2.45;0.85;;;20.80;99.90;;;;;;4200085;28;20198;-82
2023/08/20 01:40:38;;;;;;;1.52;0.85;;;20.80;99.90;;;;;;4182552;28;20191;-82
2023/08/20 01:42:39;;;;;;;1.80;0.50;;;20.90;99.90;;;;;;4200302;28;20647;-82
2023/08/20 01:44:41;;;;;;;0.30;0.30;;;20.90;99.90;;;;;;4200114;28;20246;-82
2023/08/20 01:46:42;;;;;;;3.40;0.88;;;20.90;99.90;;;;;;4215717;28;20711;-82
2023/08/20 01:48:43;;;;;;;3.55;0.95;;;20.90;99.90;;;;;;4198782;28;20175;-82
2023/08/20 01:50:45;;;;;;;1.30;0.50;;;20.80;99.90;;;;;;4198612;28;20198;-82
2023/08/20 01:52:46;;;;;;;2.05;0.90;;;20.80;99.90;;;;;;4198907;28;20218;-82
2023/08/20 01:54:48;;;;;;;1.30;0.73;;;20.80;99.90;;;;;;4182162;28;20168;-82
2023/08/20 01:56:49;;;;;;;4.00;1.48;;;20.60;99.90;;;;;;4198825;28;20536;-82
2023/08/20 01:58:50;;;;;;;5.03;1.02;;;20.60;99.90;;;;;;4198735;28;20179;-82
2023/08/20 02:00:52;;;;;;;0.95;0.50;;;20.60;99.90;;;;;;4182207;28;20187;-82
2023/08/20 02:02:53;;;;;;;2.47;0.95;;;20.60;99.90;;;;;;4198636;28;20212;-82
2023/08/20 02:04:54;;;;;;;3.17;0.70;;;20.60;99.90;;;;;;4198647;28;20574;-82
2023/08/20 02:06:54;;;;;;;3.97;0.85;;;20.50;99.90;;;;;;4198606;28;20575;-82
2023/08/20 02:08:55;;;;;;;1.98;0.57;;;20.50;99.90;;;;;;4197837;28;20528;-82
2023/08/20 02:11:02;;;;;;;2.40;0.80;;;20.50;99.90;;;;;;4182047;28;20761;-82
2023/08/20 02:13:04;;;;;;;1.30;0.43;;;20.40;99.90;;;;;;4198363;28;20177;-83
2023/08/20 02:15:05;;;;;;;4.18;1.08;;;20.40;99.90;;;;;;4198448;28;20726;-82
2023/08/20 02:17:08;;;;;;;1.85;0.43;;;20.30;99.90;;;;;;4198024;28;20174;-82
2023/08/20 02:19:08;;;;;;;4.00;0.90;;;20.30;99.90;;;;;;4198491;28;20181;-82
2023/08/20 02:21:09;;;;;;;2.40;0.73;;;20.30;99.90;;;;;;4198026;28;20650;-82
2023/08/20 02:23:10;;;;;;;2.20;0.55;;;20.10;99.90;;;;;;4199674;28;20167;-82
2023/08/20 02:25:11;;;;;;;4.22;1.95;;;20.10;99.90;;;;;;4181600;28;20171;-82
2023/08/20 02:27:11;;;;;;;1.40;0.63;;;19.90;99.90;;;;;;4197894;28;20185;-82
2023/08/20 02:29:12;;;;;;;2.63;0.40;;;19.90;99.90;;;;;;4199177;28;20224;-82
2023/08/20 02:31:13;;;;;;;2.08;1.13;;;19.90;99.90;;;;;;4214823;28;20604;-82
2023/08/20 02:33:14;;;;;;;1.58;0.47;;;19.90;99.90;;;;;;4198138;28;20623;-81
2023/08/20 02:35:16;;;;;;;0.45;0.45;;;19.90;99.90;;;;;;4198156;28;20300;-82
2023/08/20 02:37:17;;;;;;;2.17;1.33;;;19.90;99.90;;;;;;4199397;28;20208;-82
2023/08/20 02:39:20;;;;;;;1.50;0.73;;;19.90;99.90;;;;;;4198203;28;20163;-82
2023/08/20 02:41:21;;;;;;;5.32;0.57;;;19.70;99.90;;;;;;4197813;28;20201;-83
2023/08/20 02:43:22;;;;;;;2.97;0.63;;;19.60;99.90;;;;;;4180927;28;20202;-82
2023/08/20 02:45:22;;;;;;;3.30;0.98;;;19.60;99.90;;;;;;4198972;28;20171;-82
2023/08/20 02:47:26;;;;;;;3.08;1.02;;;19.60;99.90;;;;;;4197756;28;20293;-83
2023/08/20 02:49:26;;;;;;;1.15;0.40;;;19.70;99.90;;;;;;4181296;28;20175;-82
2023/08/20 02:51:27;;;;;;;4.15;0.65;;;19.80;99.90;;;;;;4197686;28;20659;-82
2023/08/20 02:53:29;;;;;;;1.92;0.65;;;19.80;99.90;;;;;;4197669;28;20175;-82
2023/08/20 02:55:31;;;;;;;1.05;0.35;;;19.80;99.90;;;;;;4197811;28;20221;-82
2023/08/20 02:57:31;;;;;;;2.42;0.60;;;19.80;99.90;;;;;;4197611;28;20202;-82
2023/08/20 02:59:32;;;;;;;1.45;0.80;;;19.80;99.90;;;;;;4198766;28;20205;-82
2023/08/20 03:01:33;;;;;;;4.15;0.60;;;19.70;99.90;;;;;;4197651;28;20676;-83
2023/08/20 03:03:34;;;;;;;0.88;0.50;;;19.70;99.90;;;;;;4197633;28;20261;-82
2023/08/20 03:05:35;;;;;;;6.78;1.23;;;19.70;99.90;;;;;;4197558;28;20663;-82
2023/08/20 03:07:36;;;;;;;0.40;0.40;;;19.70;99.90;;;;;;4198738;28;20307;-82
2023/08/20 03:09:36;;;;;;;0.35;0.30;;;19.70;99.90;;;;;;4197493;28;20184;-82
2023/08/20 03:11:37;;;;;;;0.77;0.60;;;19.70;99.90;;;;;;4198630;28;20163;-82
2023/08/20 03:13:38;;;;;;;1.15;1.02;;;19.70;99.90;;;;;;4197447;28;20174;-82
2023/08/20 03:15:39;;;;;;;2.33;0.80;;;19.70;99.90;;;;;;4198677;28;20175;-83
2023/08/20 03:17:39;;;;;;;5.38;1.20;;;19.60;99.90;;;;;;4197250;28;20214;-82
2023/08/20 03:19:57;;;;;;;3.25;0.90;;;19.60;99.90;;;;;;4197199;28;20175;-82
2023/08/20 03:21:58;;;;;;;1.85;0.85;;;19.70;99.90;;;;;;4180555;28;20718;-83
2023/08/20 03:23:58;;;;;;;4.05;1.25;;;19.70;99.90;;;;;;4197222;28;20167;-82
2023/08/20 03:25:59;;;;;;;5.72;1.13;;;19.70;99.90;;;;;;4196910;28;20178;-83
2023/08/20 03:28:00;;;;;;;4.47;1.42;;;19.70;99.90;;;;;;4197346;28;20167;-82
2023/08/20 03:30:02;;;;;;;2.03;1.02;;;19.50;99.90;;;;;;4197183;28;20643;-83
2023/08/20 03:32:03;;;;;;;2.25;0.75;;;19.50;99.90;;;;;;4197271;28;20174;-82
2023/08/20 03:34:04;;;;;;;6.30;1.35;;;19.60;99.90;;;;;;4197227;28;20274;-83
2023/08/20 03:36:05;;;;;;;2.05;0.60;;;19.50;99.90;;;;;;4197175;28;20167;-82
2023/08/20 03:38:06;;;;;;;3.03;1.20;;;19.60;99.90;;;;;;4196896;28;20214;-83
2023/08/20 03:40:07;;;;;;;0.70;0.68;;;19.60;99.90;;;;;;4196914;28;20194;-82
2023/08/20 03:42:08;;;;;;;1.23;0.70;;;19.70;99.90;;;;;;4180489;28;20179;-82
2023/08/20 03:44:09;;;;;;;2.40;0.93;;;19.70;99.90;;;;;;4196948;28;20204;-82
2023/08/20 03:46:09;;;;;;;0.93;0.60;;;19.60;99.90;;;;;;4180580;28;20175;-83
2023/08/20 03:48:10;;;;;;;2.95;0.80;;;19.60;99.90;;;;;;4180424;28;20167;-83
2023/08/20 03:50:11;;;;;;;2.17;0.75;;;19.70;99.90;;;;;;4197704;28;20742;-83
2023/08/20 03:52:12;;;;;;;3.53;0.45;;;19.60;99.90;;;;;;4196836;28;20174;-83
2023/08/20 03:54:13;;;;;;;0.75;0.55;;;19.70;99.90;;;;;;4198155;28;20171;-82
2023/08/20 03:56:13;;;;;;;1.20;0.57;;;19.60;99.90;;;;;;4196900;28;20170;-82
2023/08/20 03:58:14;;;;;;;1.10;0.57;;;19.60;99.90;;;;;;4196900;28;20218;-82
2023/08/20 04:00:15;;;;;;;1.23;0.52;;;19.60;99.90;;;;;;4196936;28;20183;-82
2023/08/20 04:02:16;;;;;;;2.08;0.73;;;19.60;99.90;;;;;;4197007;28;20703;-82
2023/08/20 04:04:17;;;;;;;1.80;0.93;;;19.60;99.90;;;;;;4196724;28;20321;-82
2023/08/20 04:06:18;;;;;;;1.48;0.50;;;19.60;99.90;;;;;;4196982;28;20618;-82
2023/08/20 04:08:18;;;;;;;8.23;1.08;;;19.70;99.90;;;;;;4197048;28;20228;-82
2023/08/20 04:10:20;;;;;;;4.75;1.05;;;19.60;99.90;;;;;;4196800;28;20186;-82
2023/08/20 04:12:21;;;;;;;3.08;0.88;;;19.60;99.90;;;;;;4196693;28;20243;-82
2023/08/20 04:14:21;;;;;;;2.55;1.33;;;19.50;99.90;;;;;;4196855;28;20254;-83
2023/08/20 04:16:22;;;;;;;1.75;1.02;;;19.50;99.90;;;;;;4196944;28;20222;-82
2023/08/20 04:18:23;;;;;;;0.75;0.52;;;19.50;99.90;;;;;;4196728;28;20214;-83
2023/08/20 04:20:24;;;;;;;3.30;1.00;;;19.50;99.90;;;;;;4196782;28;20249;-82
2023/08/20 04:22:25;;;;;;;1.30;0.80;;;19.40;99.90;;;;;;4180178;28;20266;-83
2023/08/20 04:24:26;;;;;;;3.88;1.10;;;19.30;99.90;;;;;;4196697;28;20163;-83
2023/08/20 04:26:28;;;;;;;3.53;0.98;;;19.30;99.90;;;;;;4180423;28;20525;-82
2023/08/20 04:28:29;;;;;;;0.73;0.70;;;19.30;99.90;;;;;;4196838;28;20210;-82
2023/08/20 04:30:29;;;;;;;2.97;1.27;;;19.40;99.90;;;;;;4180256;28;20206;-83
2023/08/20 04:32:30;;;;;;;1.50;0.73;;;19.40;99.90;;;;;;4215166;28;20185;-82
2023/08/20 04:34:32;;;;;;;1.85;0.68;;;19.30;99.90;;;;;;4183683;28;20178;-82
2023/08/20 04:36:32;;;;;;;3.00;0.77;;;19.30;99.90;;;;;;4183353;28;20173;-82
2023/08/20 04:38:33;;;;;;;2.10;0.90;;;19.20;99.90;;;;;;4200086;28;20242;-82
2023/08/20 04:40:35;;;;;;;1.45;0.70;;;19.10;99.90;;;;;;4200109;28;20191;-82
2023/08/20 04:42:36;;;;;;;2.80;0.88;;;19.00;99.90;;;;;;4199969;28;20181;-82
2023/08/20 04:44:37;;;;;;;7.38;1.67;;;19.00;99.90;;;;;;4199927;28;20167;-82
2023/08/20 04:46:37;;;;;;;1.67;0.80;;;19.00;99.90;;;;;;4199705;28;20183;-83
2023/08/20 04:48:39;;;;;;;3.38;1.02;;;19.10;99.90;;;;;;4199872;28;20547;-82
2023/08/20 04:50:40;;;;;;;0.80;0.63;;;18.80;99.90;;;;;;4199816;28;20195;-82
2023/08/20 04:52:40;;;;;;;2.15;0.77;;;18.90;99.90;;;;;;4200979;28;20381;-83
2023/08/20 04:54:42;;;;;;;3.30;1.00;;;19.00;99.90;;;;;;4199878;28;20175;-84
2023/08/20 04:56:43;;;;;;;3.90;0.63;;;19.20;99.90;;;;;;4199640;28;20601;-83
2023/08/20 04:58:44;;;;;;;0.70;0.50;;;19.30;99.90;;;;;;4199455;28;20659;-83
2023/08/20 05:00:45;;;;;;;2.80;1.00;;;19.40;99.90;;;;;;4199567;28;20194;-82
2023/08/20 05:02:48;;;;;;;0.82;0.45;;;19.50;99.90;;;;;;4182964;28;20179;-83
2023/08/20 05:04:52;;;;;;;3.47;1.48;;;19.60;99.90;;;;;;4183357;28;20167;-82
2023/08/20 05:06:52;;;;;;;2.80;1.27;;;19.60;99.90;;;;;;4182898;28;20175;-83
2023/08/20 05:08:54;;;;;;;3.72;0.60;;;19.70;99.90;;;;;;4199702;28;20163;-83
2023/08/20 05:10:55;;;;;;;2.90;0.93;;;19.80;99.90;;;;;;4199473;28;20570;-83
2023/08/20 05:12:55;;;;;;;2.40;1.13;;;19.90;99.90;;;;;;4199621;28;20163;-83
2023/08/20 05:14:56;;;;;;;1.85;0.47;;;20.00;99.90;;;;;;4199514;28;20528;-83
2023/08/20 05:16:57;;;;;;;2.55;0.70;;;20.00;99.90;;;;;;4198975;28;20254;-83
2023/08/20 05:18:58;;;;;;;1.50;0.63;;;20.00;99.90;;;;;;4199162;28;20178;-83
2023/08/20 05:20:58;;;;;;;0.80;0.80;;;20.00;99.90;;;;;;4200679;28;20183;-83
2023/08/20 05:22:59;;;;;;;2.05;0.98;;;20.10;99.90;;;;;;4199293;28;20262;-83
2023/08/20 05:25:00;;;;;;;1.58;0.70;;;20.10;99.90;;;;;;4199298;28;20543;-83
2023/08/20 05:27:06;;;;;;;2.25;1.25;;;20.20;99.90;;;;;;4199067;28;20175;-83
2023/08/20 05:29:07;;;;;;;1.40;1.00;;;20.20;99.90;;;;;;4182435;28;20266;-83
2023/08/20 05:31:08;;;;;;;3.78;0.90;;;20.20;99.90;;;;;;4199243;28;20198;-83
2023/08/20 05:33:09;;;;;;;2.58;0.80;;;20.10;99.90;;;;;;4199036;28;20171;-83
2023/08/20 05:35:11;;;;;;;1.45;0.77;;;20.10;99.90;;;;;;4182759;28;20175;-83
2023/08/20 05:37:14;;;;;;;2.30;0.52;;;20.10;99.90;;;;;;4198911;28;20167;-83
2023/08/20 05:39:15;;;;;;;2.13;1.02;;;20.00;99.90;;;;;;4182536;28;20296;-83
2023/08/20 05:41:15;;;;;;;3.47;0.75;;;20.00;99.90;;;;;;4200271;28;20186;-83
2023/08/20 05:43:16;;;;;;;2.92;1.10;;;20.00;99.90;;;;;;4198262;28;20181;-83
2023/08/20 05:45:17;;;;;;;3.85;1.15;;;19.80;99.90;;;;;;4182031;28;20172;-83
2023/08/20 05:47:18;;;;;;;3.88;0.85;;;19.90;99.90;;;;;;4182150;28;20176;-82
2023/08/20 05:49:19;;;;;;;1.65;0.70;;;20.00;99.90;;;;;;4182518;28;20244;-83
2023/08/20 05:51:20;;;;;;;6.03;0.90;;;20.10;99.90;;;;;;4198703;28;20670;-83
2023/08/20 05:53:22;;;;;;;3.90;1.13;;;20.10;99.90;;;;;;4182258;28;20179;-83
2023/08/20 05:55:24;;;;;;;1.45;0.75;;;20.10;99.90;;;;;;4198854;28;20170;-83
2023/08/20 05:57:25;;;;;;;4.13;1.25;;;20.20;99.90;;;;;;4198762;28;20209;-83
2023/08/20 05:59:26;;;;;;;1.55;0.88;;;20.30;99.90;;;;;;4198570;28;20179;-83
2023/08/20 06:01:26;;;;;;;5.60;1.35;;;20.40;99.90;;;;;;4198525;28;20191;-83
2023/08/20 06:03:28;;;;;;;2.45;0.68;;;20.50;99.90;;;;;;4198527;28;20170;-83
2023/08/20 06:05:28;;;;;;;4.03;1.30;;;20.50;99.90;;;;;;4181864;28;20191;-83
2023/08/20 06:07:29;;;;;;;1.95;1.17;;;20.60;99.90;;;;;;4181926;28;20182;-83
2023/08/20 06:09:30;;;;;;;5.63;1.60;;;20.60;99.90;;;;;;4198344;28;20170;-82
2023/08/20 06:11:30;;;;;;;4.10;1.05;;;20.60;99.90;;;;;;4182211;28;20234;-83
2023/08/20 06:13:31;;;;;;;4.25;1.13;;;20.60;99.90;;;;;;4198650;28;20177;-83
2023/08/20 06:15:32;;;;;;;1.67;1.02;;;20.60;99.90;;;;;;4181910;28;20175;-83
2023/08/20 06:17:33;;;;;;;2.33;0.65;;;20.60;99.90;;;;;;4198443;28;20536;-83
2023/08/20 06:19:34;;;;;;;2.55;0.95;;;20.60;99.90;;;;;;4198287;28;20175;-83
2023/08/20 06:21:34;;;;;;;2.35;0.90;;;20.60;99.90;;;;;;4198488;28;20163;-83
2023/08/20 06:23:35;;;;;;;2.85;1.08;;;20.60;99.90;;;;;;4198346;28;20178;-83
2023/08/20 06:25:36;;;;;;;3.55;1.33;;;20.70;99.90;;;;;;4181896;28;20652;-83
2023/08/20 06:27:36;;;;;;;2.70;0.77;;;20.80;99.90;;;;;;4181522;28;20176;-83
2023/08/20 06:29:38;;;;;;;4.03;1.05;;;20.80;99.90;;;;;;4198112;28;20194;-83
2023/08/20 06:31:39;;;;;;;1.50;0.60;;;20.80;99.90;;;;;;4198287;28;20205;-83
2023/08/20 06:33:40;;;;;;;1.63;0.65;;;20.80;99.90;;;;;;4197902;28;20175;-83
2023/08/20 06:35:41;;;;;;;2.90;0.82;;;20.90;99.90;;;;;;4181630;28;20176;-83
2023/08/20 06:37:42;;;;;;;5.13;0.70;;;21.00;99.90;;;;;;4198062;28;20913;-83
2023/08/20 06:39:42;;;;;;;1.23;0.70;;;21.10;99.90;;;;;;4198104;28;20178;-83
2023/08/20 06:41:43;;;;;;;3.20;0.80;;;21.10;99.90;;;;;;4197785;28;20179;-83
2023/08/20 06:43:54;;;;;;;2.42;0.57;;;21.30;99.90;;;;;;4198148;28;20198;-83
2023/08/20 06:45:55;;;;;;;4.03;0.93;;;21.30;99.90;;;;;;4181404;28;20183;-83
2023/08/20 06:47:57;;;;;;;2.97;0.98;;;21.40;99.90;;;;;;4197936;28;20171;-83
2023/08/20 06:49:58;;;;;;;0.47;0.47;;;21.50;99.90;;;;;;4197965;28;20221;-83
2023/08/20 06:51:58;;;;;;;1.58;0.65;;;21.50;99.90;;;;;;4197866;28;20648;-83
2023/08/20 06:53:59;;;;;;;2.63;0.68;;;21.70;99.90;;;;;;4181286;28;20210;-83
2023/08/20 06:56:00;;;;;;;3.15;1.08;;;21.80;99.90;;;;;;4198769;28;20194;-83
2023/08/20 06:58:02;;;;;;;3.92;0.93;;;21.90;99.90;;;;;;4197677;28;20219;-83
2023/08/20 07:00:06;;;;;;;1.15;0.70;;;21.80;99.90;;;;;;4181074;28;20777;-83
2023/08/20 07:02:07;;;;;;;1.42;0.60;;;21.90;99.90;;;;;;4181275;28;20648;-83
2023/08/20 07:04:07;;;;;;;3.58;0.30;;;21.90;99.90;;;;;;4197933;28;20219;-83
2023/08/20 07:06:10;;;;;;;5.07;0.90;;;21.80;99.90;;;;;;4181268;28;20222;-83
2023/08/20 07:08:11;;;;;;;0.38;0.30;;;21.80;99.90;;;;;;4197390;28;20187;-83
2023/08/20 07:10:12;;;;;;;0.65;0.30;;;22.00;99.90;;;;;;4197618;28;20191;-83
2023/08/20 07:12:12;;;;;;;1.15;0.32;;;22.10;99.90;;;;;;4180980;28;20176;-83
2023/08/20 07:14:13;;;;;;;0.40;0.40;;;22.00;99.90;;;;;;4181013;28;20532;-83
2023/08/20 07:16:14;;;;;;;2.30;0.35;;;22.00;99.90;;;;;;4214333;28;20626;-82
2023/08/20 07:18:15;;;;;;;0.40;0.32;;;23.10;99.90;;;;;;4198466;28;20198;-83
2023/08/20 07:20:15;;;;;;;0.20;0.13;;;24.60;99.90;;;;;;4197405;28;20190;-83
2023/08/20 07:22:16;;;;;;;3.67;0.57;;;25.60;99.90;;;;;;4197389;28;20228;-83
2023/08/20 07:24:18;;;;;;;1.55;0.30;;;26.90;99.90;;;;;;4197497;28;20261;-83
2023/08/20 07:26:18;;;;;;;2.47;0.10;;;28.10;99.90;;;;;;4197420;28;20171;-83
2023/08/20 07:28:56;;;;;;;0.75;0.20;;;28.50;99.90;;;;;;4180870;28;20241;-83
2023/08/20 07:30:42;;;;;;;0.63;0.30;;;29.40;99.90;;;;;;4197161;28;20215;-84
2023/08/20 07:32:43;;;;;;;4.93;0.95;;;30.80;99.90;;;;;;4197149;28;20174;-84
2023/08/20 07:34:44;;;;;;;1.48;0.40;;;31.50;99.90;;;;;;4180716;28;20171;-84
2023/08/20 07:36:47;;;;;;;0.80;0.30;;;32.30;99.90;;;;;;4198637;28;20170;-84
2023/08/20 07:38:48;;;;;;;0.50;0.30;;;32.80;99.90;;;;;;4180610;28;20211;-84
2023/08/20 07:40:49;;;;;;;1.30;0.15;;;32.40;99.90;;;;;;4197014;28;20696;-84
2023/08/20 07:42:50;;;;;;;0.13;0.13;;;32.70;99.90;;;;;;4197005;28;20166;-84
2023/08/20 07:44:51;;;;;;;0.40;0.30;;;33.40;99.90;;;;;;4180453;28;20182;-84
2023/08/20 07:46:51;;;;;;;0.20;0.10;;;34.10;99.90;;;;;;4196634;28;20186;-84
2023/08/20 07:48:52;;;;;;;0.63;0.10;;;34.20;99.90;;;;;;4196802;28;20235;-84
2023/08/20 07:50:53;;;;;;;0.70;0.20;;;33.70;99.90;;;;;;4196829;28;20662;-84
2023/08/20 07:52:53;;;;;;;0.52;0.43;;;32.60;99.90;;;;;;4196948;28;20170;-84
2023/08/20 07:54:54;;;;;;;0.98;0.40;;;33.20;99.90;;;;;;4196666;28;20194;-84
2023/08/20 07:56:55;;;;;;;5.32;0.75;;;33.80;99.90;;;;;;4196914;28;20174;-84
2023/08/20 07:58:56;;;;;;;2.40;0.63;;;34.50;99.90;;;;;;4180370;28;20244;-84
2023/08/20 08:00:57;;;;;;;1.33;0.30;;;35.10;99.90;;;;;;4196787;28;20182;-84
2023/08/20 08:02:58;;;;;;;2.53;0.30;;;36.30;99.90;;;;;;4197038;28;20184;-84
2023/08/20 08:04:59;;;;;;;0.93;0.30;;;35.90;99.90;;;;;;4196922;28;20678;-84
2023/08/20 08:07:00;;;;;;;1.52;0.35;;;36.20;99.90;;;;;;4179783;28;20194;-84
2023/08/20 08:09:22;;;;;;;0.30;0.30;;;35.70;99.90;;;;;;4196541;28;20209;-84
2023/08/20 08:11:22;;;;;;;0.88;0.50;;;34.60;99.90;;;;;;4196566;28;20281;-84
2023/08/20 08:13:23;;;;;;;1.13;0.57;;;34.60;99.90;;;;;;4196792;28;20216;-84
2023/08/20 08:15:24;;;;;;;1.75;0.30;;;34.00;99.90;;;;;;4198042;28;20166;-84
2023/08/20 08:17:25;;;;;;;2.83;0.65;;;34.40;99.90;;;;;;4197780;28;20174;-84
2023/08/20 08:19:25;;;;;;;0.10;0.10;;;34.50;99.90;;;;;;4196868;28;20194;-84
2023/08/20 08:21:26;;;;;;;0.60;0.32;;;34.30;99.90;;;;;;4179866;28;20199;-84
2023/08/20 08:23:27;;;;;;;2.10;0.30;;;33.70;99.90;;;;;;4196769;28;20197;-84
2023/08/20 08:25:28;;;;;;;1.00;0.30;;;32.90;99.90;;;;;;4196817;28;20253;-84
2023/08/20 08:27:29;;;;;;;0.35;0.30;;;33.40;99.90;;;;;;4197965;28;20678;-84
2023/08/20 08:29:30;;;;;;;1.55;0.32;;;34.50;99.90;;;;;;4196669;28;20225;-84
2023/08/20 08:31:30;;;;;;;6.90;0.50;;;35.90;99.90;;;;;;4196598;28;20182;-84
2023/08/20 08:33:31;;;;;;;0.43;0.20;;;36.40;99.90;;;;;;4196671;28;20228;-84
2023/08/20 08:35:32;;;;;;;0.68;0.50;;;36.30;99.90;;;;;;4196761;28;20198;-84
2023/08/20 08:37:33;;;;;;;0.20;0.20;;;36.40;99.90;;;;;;4196793;28;20664;-84
2023/08/20 08:39:34;;;;;;;0.57;0.40;;;36.70;99.90;;;;;;4196548;28;20623;-85
2023/08/20 08:41:38;;;;;;;0.40;0.40;;;37.30;99.90;;;;;;4196432;28;20240;-84
2023/08/20 08:43:40;;;;;;;0.20;0.20;;;37.50;99.90;;;;;;4197950;28;20174;-85
2023/08/20 08:45:41;;;;;;;0.52;0.30;;;37.10;99.90;;;;;;4197679;28;20703;-85
2023/08/20 08:47:42;;;;;;;1.10;0.20;;;36.80;99.90;;;;;;4213317;28;20194;-84
2023/08/20 08:49:44;;;;;;;0.40;0.10;;;36.80;99.90;;;;;;4179977;28;20182;-85
2023/08/20 08:51:46;;;;;;;1.20;0.10;;;35.70;99.90;;;;;;4180006;28;20254;-85
2023/08/20 08:53:47;;;;;;;1.02;0.25;;;36.50;99.90;;;;;;4179997;28;20218;-84
2023/08/20 08:55:47;;;;;;;0.10;0.10;;;35.90;99.90;;;;;;4197856;28;20215;-85
2023/08/20 08:57:48;;;;;;;0.75;0.20;;;36.20;99.90;;;;;;4197634;28;20166;-84
2023/08/20 08:59:49;;;;;;;0.35;0.20;;;37.20;99.90;;;;;;4196321;28;20304;-84
2023/08/20 09:01:50;;;;;;;0.20;0.10;;;37.30;99.90;;;;;;4197834;28;20171;-84
2023/08/20 09:03:51;;;;;;;1.35;0.30;;;36.80;99.90;;;;;;4196231;28;20198;-84
2023/08/20 09:06:03;;;;;;;0.73;0.20;;;34.80;99.90;;;;;;4179936;28;20182;-84
2023/08/20 09:08:04;;;;;;;0.93;0.30;;;34.40;99.90;;;;;;4179947;28;20209;-84
2023/08/20 09:10:05;;;;;;;0.20;0.20;;;34.60;99.90;;;;;;4197724;28;20654;-84
2023/08/20 09:12:16;;;;;;;0.90;0.25;;;34.50;99.90;;;;;;4196602;28;20650;-85
2023/08/20 09:14:24;;;;;;;1.27;0.20;;;35.30;99.90;;;;;;4179691;28;20178;-84
2023/08/20 09:16:30;;;;;;;0.10;0.10;;;35.90;99.90;;;;;;4196491;28;20178;-84
2023/08/20 09:18:32;;;;;;;1.52;0.50;;;36.00;99.90;;;;;;4197858;28;20654;-85
2023/08/20 09:20:37;;;;;;;0.10;0.10;;;35.80;99.90;;;;;;4200574;28;20247;-85
2023/08/20 09:22:38;;;;;;;0.45;0.30;;;35.60;99.90;;;;;;4199279;28;20202;-85
2023/08/20 09:24:45;;;;;;;0.20;0.20;;;35.30;99.90;;;;;;4200678;28;20496;-84
2023/08/20 09:26:46;;;;;;;0.20;0.20;;;35.20;99.90;;;;;;4199185;28;20174;-85
2023/08/20 09:28:47;;;;;;;0.20;0.20;;;35.10;99.90;;;;;;4198936;28;20239;-84
2023/08/20 09:30:58;;;;;;;0.40;0.20;;;35.60;99.90;;;;;;4198945;28;20244;-83
2023/08/20 09:33:11;;;;;;;0.05;0.00;;;36.30;99.90;;;;;;4200062;28;20206;-84
2023/08/20 09:35:18;;;;;;;0.35;0.22;;;35.40;99.90;;;;;;4182383;28;20512;-85
2023/08/20 09:37:21;;;;;;;0.30;0.10;;;36.00;99.90;;;;;;4200666;28;20279;-87
2023/08/20 09:39:22;;;;;;;0.88;0.32;;;35.00;99.90;;;;;;4182713;28;20180;-84
2023/08/20 09:41:25;;;;;;;0.10;0.05;;;33.90;99.90;;;;;;4182422;28;20249;-84
2023/08/20 09:43:30;;;;;;;0.00;0.00;;;34.10;99.90;;;;;;4200133;28;20519;-84
2023/08/20 09:45:31;;;;;;;0.10;0.10;;;35.00;99.90;;;;;;4200317;28;20158;-84
2023/08/20 09:47:36;;;;;;;0.22;0.10;;;34.90;99.90;;;;;;4199850;28;20224;-84
2023/08/20 09:49:39;;;;;;;0.10;0.00;;;34.50;99.90;;;;;;4199541;28;20246;-84
2023/08/20 09:51:42;;;;;;;0.10;0.10;;;34.40;99.90;;;;;;4198873;28;20186;-85
2023/08/20 09:54:03;;;;;;;0.15;0.05;;;34.60;99.90;;;;;;4215616;28;20166;-84
2023/08/20 09:56:14;;;;;;;0.28;0.10;;;34.90;99.90;;;;;;4208125;28;20201;-84
2023/08/20 09:58:16;;;;;;;0.40;0.10;;;34.90;99.90;;;;;;4200150;28;20198;-84
2023/08/20 10:00:17;;;;;;;1.55;0.30;;;35.10;99.90;;;;;;4199987;28;20232;-85
2023/08/20 10:02:19;;;;;;;0.00;0.00;;;34.90;99.90;;;;;;4182318;28;20173;-85
2023/08/20 10:04:22;;;;;;;1.75;0.20;;;34.80;99.90;;;;;;4198449;28;20178;-84
2023/08/20 10:06:27;;;;;;;0.10;0.10;;;34.90;99.90;;;;;;4198700;28;20725;-84
2023/08/20 10:08:28;;;;;;;0.88;0.15;;;33.70;99.90;;;;;;4181889;28;20242;-84
2023/08/20 10:10:30;;;;;;;0.55;0.35;;;32.70;99.90;;;;;;4199780;28;20178;-84
2023/08/20 10:12:32;;;;;;;0.30;0.20;;;33.50;99.90;;;;;;4199597;28;20261;-84
2023/08/20 10:14:32;;;;;;;0.30;0.10;;;33.70;99.90;;;;;;4181995;28;20163;-84
2023/08/20 10:16:33;;;;;;;0.20;0.10;;;33.50;99.90;;;;;;4199689;28;20197;-84
2023/08/20 10:18:35;;;;;;;0.47;0.10;;;32.90;99.90;;;;;;4199480;28;20249;-84
2023/08/20 10:20:39;;;;;;;0.85;0.10;;;31.60;99.90;;;;;;4198296;28;20198;-84
2023/08/20 10:22:41;;;;;;;0.75;0.30;;;31.20;99.90;;;;;;4199731;28;20618;-83
2023/08/20 10:24:51;;;;;;;0.10;0.10;;;31.90;99.90;;;;;;4181815;28;20175;-83
2023/08/20 10:27:09;;;;;;;0.15;0.05;;;32.30;99.90;;;;;;4199622;28;20252;-83
2023/08/20 10:29:34;;;;;;;0.10;0.08;;;32.00;99.90;;;;;;4198328;28;20187;-83
2023/08/20 10:31:45;;;;;;;0.65;0.10;;;31.40;99.90;;;;;;4198311;28;20308;-83
2023/08/20 10:33:56;;;;;;;0.10;0.00;;;30.50;99.90;;;;;;4181441;28;20679;-83
2023/08/20 10:35:56;;;;;;;0.10;0.10;;;29.80;99.90;;;;;;4199578;28;20170;-83
2023/08/20 10:38:07;;;;;;;0.13;0.00;;;29.50;99.90;;;;;;4215017;28;20178;-82